N2STN CYYR-KBGR
Flight info
| Callsign | N2STN |
|---|---|
| Flight time | N/A |
| Altitude | 16000 |
| Route | FRAZR DCT OMPOG DCT TAFFY DCT IMAMA DCT BGR |
| Aircraft | S22T/L-SDGRY/S |
Departure
| Time | 2026-05-07 15:59 |
|---|---|
| Airport | Goose Bay Airport (CYYR) |
Arrival
| Time | N/A |
|---|---|
| Airport | Bangor International Airport (KBGR) |
| Time | Latitude | Longitude | Altitude | Speed | Heading |
|---|---|---|---|---|---|
| 2026-05-07 15:20 | 53.30989 | -60.40585 | 137 ft | 0 kts | 226° |
| 2026-05-07 15:43 | 53.30992 | -60.40589 | 137 ft | 0 kts | 31° |
| 2026-05-07 15:43 | 53.30993 | -60.40585 | 137 ft | 0 kts | 64° |
| 2026-05-07 15:46 | 53.30996 | -60.40577 | 137 ft | 4 kts | 58° |
| 2026-05-07 15:46 | 53.31008 | -60.40521 | 137 ft | 4 kts | 110° |
| 2026-05-07 15:46 | 53.30989 | -60.40475 | 137 ft | 6 kts | 135° |
| 2026-05-07 15:47 | 53.30954 | -60.40416 | 137 ft | 5 kts | 142° |
| 2026-05-07 15:47 | 53.30941 | -60.40395 | 137 ft | 0 kts | 129° |
| 2026-05-07 15:47 | 53.30927 | -60.40367 | 137 ft | 6 kts | 108° |
| 2026-05-07 15:47 | 53.30942 | -60.40306 | 137 ft | 7 kts | 41° |
| 2026-05-07 15:48 | 53.30972 | -60.40260 | 137 ft | 5 kts | 50° |
| 2026-05-07 15:48 | 53.31005 | -60.40208 | 137 ft | 7 kts | 42° |
| 2026-05-07 15:48 | 53.31037 | -60.40163 | 137 ft | 2 kts | 15° |
| 2026-05-07 15:48 | 53.31062 | -60.40191 | 137 ft | 7 kts | 313° |
| 2026-05-07 15:49 | 53.31105 | -60.40265 | 137 ft | 9 kts | 314° |
| 2026-05-07 15:49 | 53.31150 | -60.40346 | 138 ft | 10 kts | 314° |
| 2026-05-07 15:49 | 53.31197 | -60.40428 | 138 ft | 10 kts | 314° |
| 2026-05-07 15:49 | 53.31247 | -60.40519 | 139 ft | 11 kts | 312° |
| 2026-05-07 15:50 | 53.31296 | -60.40608 | 141 ft | 11 kts | 312° |
| 2026-05-07 15:50 | 53.31327 | -60.40644 | 142 ft | 2 kts | 359° |
| 2026-05-07 15:50 | 53.31332 | -60.40644 | 142 ft | 0 kts | 7° |
| 2026-05-07 15:50 | 53.31347 | -60.40632 | 144 ft | 3 kts | 33° |
| 2026-05-07 15:51 | 53.31372 | -60.40598 | 147 ft | 7 kts | 43° |
| 2026-05-07 15:51 | 53.31406 | -60.40574 | 149 ft | 7 kts | 342° |
| 2026-05-07 15:51 | 53.31449 | -60.40642 | 149 ft | 9 kts | 312° |
| 2026-05-07 15:51 | 53.31467 | -60.40678 | 150 ft | 4 kts | 305° |
| 2026-05-07 15:52 | 53.31494 | -60.40724 | 150 ft | 7 kts | 313° |
| 2026-05-07 15:52 | 53.31529 | -60.40787 | 150 ft | 8 kts | 313° |
| 2026-05-07 15:52 | 53.31548 | -60.40880 | 150 ft | 10 kts | 281° |
| 2026-05-07 15:52 | 53.31563 | -60.41010 | 151 ft | 12 kts | 279° |
| 2026-05-07 15:53 | 53.31579 | -60.41147 | 153 ft | 11 kts | 278° |
| 2026-05-07 15:53 | 53.31592 | -60.41279 | 155 ft | 12 kts | 282° |
| 2026-05-07 15:53 | 53.31595 | -60.41411 | 158 ft | 10 kts | 248° |
| 2026-05-07 15:53 | 53.31549 | -60.41534 | 157 ft | 15 kts | 235° |
| 2026-05-07 15:54 | 53.31484 | -60.41691 | 158 ft | 17 kts | 235° |
| 2026-05-07 15:54 | 53.31409 | -60.41873 | 155 ft | 21 kts | 236° |
| 2026-05-07 15:54 | 53.31321 | -60.42082 | 154 ft | 22 kts | 236° |
| 2026-05-07 15:54 | 53.31251 | -60.42250 | 155 ft | 14 kts | 237° |
| 2026-05-07 15:55 | 53.31204 | -60.42368 | 156 ft | 11 kts | 235° |
| 2026-05-07 15:55 | 53.31161 | -60.42467 | 156 ft | 9 kts | 233° |
| 2026-05-07 15:55 | 53.31130 | -60.42538 | 157 ft | 6 kts | 233° |
| 2026-05-07 15:55 | 53.31103 | -60.42606 | 157 ft | 10 kts | 236° |
| 2026-05-07 15:56 | 53.31049 | -60.42726 | 155 ft | 15 kts | 225° |
| 2026-05-07 15:56 | 53.30985 | -60.42862 | 154 ft | 16 kts | 234° |
| 2026-05-07 15:56 | 53.30911 | -60.43038 | 150 ft | 21 kts | 236° |
| 2026-05-07 15:56 | 53.30832 | -60.43230 | 152 ft | 20 kts | 234° |
| 2026-05-07 15:57 | 53.30761 | -60.43400 | 154 ft | 10 kts | 236° |
| 2026-05-07 15:57 | 53.30744 | -60.43484 | 155 ft | 7 kts | 307° |
| 2026-05-07 15:57 | 53.30787 | -60.43534 | 154 ft | 9 kts | 324° |
| 2026-05-07 15:57 | 53.30846 | -60.43604 | 152 ft | 11 kts | 327° |
| 2026-05-07 15:58 | 53.30899 | -60.43583 | 151 ft | 10 kts | 52° |
| 2026-05-07 15:58 | 53.31057 | -60.43203 | 148 ft | 66 kts | 54° |
| 2026-05-07 15:58 | 53.31359 | -60.42456 | 282 ft | 84 kts | 51° |
| 2026-05-07 15:58 | 53.31726 | -60.41679 | 552 ft | 86 kts | 50° |
| 2026-05-07 15:59 | 53.32059 | -60.40860 | 845 ft | 87 kts | 58° |
| 2026-05-07 15:59 | 53.32431 | -60.39911 | 1158 ft | 99 kts | 56° |
| 2026-05-07 15:59 | 53.32864 | -60.38991 | 1540 ft | 105 kts | 53° |
| 2026-05-07 15:59 | 53.33366 | -60.38093 | 1913 ft | 107 kts | 59° |
| 2026-05-07 16:00 | 53.33951 | -60.37098 | 2088 ft | 124 kts | 55° |
| 2026-05-07 16:00 | 53.34797 | -60.36590 | 2390 ft | 139 kts | 15° |
| 2026-05-07 16:00 | 53.35432 | -60.35643 | 2444 ft | 123 kts | 91° |
| 2026-05-07 16:00 | 53.35547 | -60.34453 | 3030 ft | 99 kts | 97° |
| 2026-05-07 16:01 | 53.35768 | -60.33178 | 3172 ft | 121 kts | 87° |
| 2026-05-07 16:01 | 53.36136 | -60.31951 | 3595 ft | 127 kts | 71° |
| 2026-05-07 16:01 | 53.36711 | -60.30761 | 3903 ft | 129 kts | 71° |
| 2026-05-07 16:01 | 53.37259 | -60.29557 | 4190 ft | 138 kts | 71° |
| 2026-05-07 16:02 | 53.37937 | -60.28242 | 4357 ft | 157 kts | 60° |
| 2026-05-07 16:02 | 53.38737 | -60.26982 | 4644 ft | 157 kts | 64° |
| 2026-05-07 16:02 | 53.39725 | -60.25975 | 5052 ft | 155 kts | 51° |
| 2026-05-07 16:02 | 53.40470 | -60.24892 | 5518 ft | 138 kts | 70° |
| 2026-05-07 16:03 | 53.41044 | -60.23625 | 5865 ft | 130 kts | 83° |
| 2026-05-07 16:03 | 53.41453 | -60.22359 | 6199 ft | 121 kts | 96° |
| 2026-05-07 16:03 | 53.41630 | -60.21513 | 6418 ft | 111 kts | 106° |
| 2026-05-07 16:03 | 53.41810 | -60.19892 | 6820 ft | 109 kts | 111° |
| 2026-05-07 16:04 | 53.41909 | -60.19050 | 7049 ft | 113 kts | 105° |
| 2026-05-07 16:04 | 53.42252 | -60.17703 | 7319 ft | 140 kts | 84° |
| 2026-05-07 16:04 | 53.42894 | -60.16243 | 7468 ft | 171 kts | 62° |
| 2026-05-07 16:04 | 53.43886 | -60.14996 | 7747 ft | 183 kts | 44° |
| 2026-05-07 16:05 | 53.44875 | -60.13719 | 7993 ft | 183 kts | 49° |
| 2026-05-07 16:05 | 53.45483 | -60.12191 | 8267 ft | 139 kts | 104° |
| 2026-05-07 16:05 | 53.45505 | -60.10774 | 8706 ft | 111 kts | 124° |
| 2026-05-07 16:05 | 53.45359 | -60.09511 | 8953 ft | 111 kts | 130° |
| 2026-05-07 16:06 | 53.45182 | -60.08277 | 9353 ft | 108 kts | 128° |
| 2026-05-07 16:06 | 53.45032 | -60.06997 | 9580 ft | 113 kts | 130° |
| 2026-05-07 16:06 | 53.44750 | -60.05867 | 9884 ft | 94 kts | 148° |
| 2026-05-07 16:06 | 53.44297 | -60.05206 | 10159 ft | 83 kts | 165° |
| 2026-05-07 16:07 | 53.43767 | -60.04895 | 10434 ft | 81 kts | 174° |
| 2026-05-07 16:07 | 53.43244 | -60.04424 | 10708 ft | 85 kts | 168° |
| 2026-05-07 16:07 | 53.42689 | -60.04247 | 10977 ft | 81 kts | 185° |
| 2026-05-07 16:07 | 53.42159 | -60.04569 | 11245 ft | 86 kts | 204° |
| 2026-05-07 16:08 | 53.41742 | -60.05357 | 11511 ft | 93 kts | 215° |
| 2026-05-07 16:08 | 53.41245 | -60.05713 | 11948 ft | 70 kts | 211° |
| 2026-05-07 16:08 | 53.41050 | -60.06423 | 12383 ft | 74 kts | 221° |
| 2026-05-07 16:08 | 53.40714 | -60.07130 | 12484 ft | 76 kts | 191° |
| 2026-05-07 16:09 | 53.40189 | -60.07346 | 12713 ft | 83 kts | 201° |
| 2026-05-07 16:09 | 53.39744 | -60.06931 | 11991 ft | 113 kts | 133° |